Time;durP1;ratioP1;P1;durP2;ratioP2;P2;SDS_P1;SDS_P2;PMS_P1;PMS_P2;Temp;Humidity;BMP_temperature;BMP_pressure;BME280_temperature;BME280_humidity;BME280_pressure;Samples;Min_cycle;Max_cycle;Signal;HPM_P1;HPM_P2
2021/11/15 00:02:15;;;;;;;;;;;;;;;;;;2219372;58;1432;-71
2021/11/15 00:04:49;;;;;;;;;;;;;;;;;;2219572;66;1219;-71
2021/11/15 00:07:22;;;;;;;;;;;;;;;;;;2219134;66;1274;-71
2021/11/15 00:09:55;;;;;;;;;;;;;;;;;;2219775;66;1230;-72
2021/11/15 00:12:29;;;;;;;;;;;;;;;;;;2218911;59;1179;-71
2021/11/15 00:15:05;;;;;;;;;;;;;;;;;;2219179;66;1158;-71
2021/11/15 00:17:38;;;;;;;;;;;;;;;;;;2219020;59;1980;-71
2021/11/15 00:20:12;;;;;;;;;;;;;;;;;;2218728;58;2008;-71
2021/11/15 00:22:45;;;;;;;;;;;;;;;;;;2219112;58;1533;-71
2021/11/15 00:25:19;;;;;;;;;;;;;;;;;;2219041;66;1220;-71
2021/11/15 00:27:52;;;;;;;;;;;;;;;;;;2219602;66;1243;-71
2021/11/15 00:30:28;;;;;;;;;;;;;;;;;;2219504;66;1217;-71
2021/11/15 00:33:02;;;;;;;;;;;;;;;;;;2219270;66;1255;-71
2021/11/15 00:35:35;;;;;;;;;;;;;;;;;;2220737;58;1402;-71
2021/11/15 00:38:08;;;;;;;;;;;;;;;;;;2219228;59;1929;-71
2021/11/15 00:40:42;;;;;;;;;;;;;;;;;;2220415;66;1238;-71
2021/11/15 00:43:15;;;;;;;;;;;;;;;;;;2219170;66;1195;-71
2021/11/15 00:45:52;;;;;;;;;;;;;;;;;;2220297;59;1306;-71
2021/11/15 00:48:25;;;;;;;;;;;;;;;;;;2219251;66;1168;-71
2021/11/15 00:51:00;;;;;;;;;;;;;;;;;;2220380;66;1290;-71
2021/11/15 00:53:33;;;;;;;;;;;;;;;;;;2219111;66;1204;-71
2021/11/15 00:56:07;;;;;;;;;;;;;;;;;;2218225;59;1517;-71
2021/11/15 00:58:40;;;;;;;;;;;;;;;;;;2218514;66;1975;-71
2021/11/15 01:01:16;;;;;;;;;;;;;;;;;;2218890;58;1239;-71
2021/11/15 01:03:50;;;;;;;;;;;;;;;;;;2218300;66;1208;-71
2021/11/15 01:06:23;;;;;;;;;;;;;;;;;;2217840;66;1186;-71
2021/11/15 01:08:57;;;;;;;;;;;;;;;;;;2217803;66;1098;-71
2021/11/15 01:11:30;;;;;;;;;;;;;;;;;;2218210;66;1237;-71
2021/11/15 01:14:04;;;;;;;;;;;;;;;;;;2218611;66;1329;-71
2021/11/15 01:16:40;;;;;;;;;;;;;;;;;;2218853;66;1214;-70
2021/11/15 01:19:14;;;;;;;;;;;;;;;;;;2219257;66;1932;-71
2021/11/15 01:21:48;;;;;;;;;;;;;;;;;;2219069;58;1226;-71
2021/11/15 01:24:21;;;;;;;;;;;;;;;;;;2219661;58;1731;-71
2021/11/15 01:26:55;;;;;;;;;;;;;;;;;;2219394;66;1282;-71
2021/11/15 01:29:29;;;;;;;;;;;;;;;;;;2220087;66;1328;-71
2021/11/15 01:32:05;;;;;;;;;;;;;;;;;;2220230;66;1196;-71
2021/11/15 01:34:39;;;;;;;;;;;;;;;;;;2219110;66;1267;-71
2021/11/15 01:37:12;;;;;;;;;;;;;;;;;;2219887;58;1566;-70
2021/11/15 01:39:46;;;;;;;;;;;;;;;;;;2217883;59;1940;-70
2021/11/15 01:42:19;;;;;;;;;;;;;;;;;;2218548;66;1150;-71
2021/11/15 01:44:53;;;;;;;;;;;;;;;;;;2218537;66;1123;-71
2021/11/15 01:47:29;;;;;;;;;;;;;;;;;;2218585;59;1171;-71
2021/11/15 01:50:02;;;;;;;;;;;;;;;;;;2216777;58;1444;-71
2021/11/15 01:52:35;;;;;;;;;;;;;;;;;;2218511;66;1170;-71
2021/11/15 01:55:09;;;;;;;;;;;;;;;;;;2218233;59;1118;-71
2021/11/15 01:57:44;;;;;;;;;;;;;;;;;;2219164;59;1158;-71
2021/11/15 02:00:19;;;;;;;;;;;;;;;;;;2220233;66;1213;-71
2021/11/15 02:02:55;;;;;;;;;;;;;;;;;;2219763;58;1171;-71
2021/11/15 02:05:29;;;;;;;;;;;;;;;;;;2219151;66;1195;-71
2021/11/15 02:08:02;;;;;;;;;;;;;;;;;;2219777;66;1318;-71
2021/11/15 02:10:36;;;;;;;;;;;;;;;;;;2220393;66;1185;-71
2021/11/15 02:13:09;;;;;;;;;;;;;;;;;;2219439;66;1339;-71
2021/11/15 02:15:43;;;;;;;;;;;;;;;;;;2219004;66;1099;-71
2021/11/15 02:18:20;;;;;;;;;;;;;;;;;;2219632;66;2094;-71
2021/11/15 02:20:57;;;;;;;;;;;;;;;;;;2222019;53;3686;-70
2021/11/15 02:23:31;;;;;;;;;;;;;;;;;;2221613;58;1467;-70
2021/11/15 02:26:05;;;;;;;;;;;;;;;;;;2223106;58;1233;-70
2021/11/15 02:28:40;;;;;;;;;;;;;;;;;;2221720;58;1238;-70
2021/11/15 02:31:14;;;;;;;;;;;;;;;;;;2221960;66;1177;-70
2021/11/15 02:33:49;;;;;;;;;;;;;;;;;;2221472;66;1211;-70
2021/11/15 02:36:27;;;;;;;;;;;;;;;;;;2221952;58;1423;-70
2021/11/15 02:39:01;;;;;;;;;;;;;;;;;;2216949;58;2173;-70
2021/11/15 02:41:34;;;;;;;;;;;;;;;;;;2221730;58;1362;-70
2021/11/15 02:44:08;;;;;;;;;;;;;;;;;;2220758;58;1446;-70
2021/11/15 02:46:41;;;;;;;;;;;;;;;;;;2222184;58;1161;-70
2021/11/15 02:49:15;;;;;;;;;;;;;;;;;;2221964;66;1107;-70
2021/11/15 02:51:51;;;;;;;;;;;;;;;;;;2222832;66;1249;-70
2021/11/15 02:54:24;;;;;;;;;;;;;;;;;;2221043;58;1215;-70
2021/11/15 02:56:57;;;;;;;;;;;;;;;;;;2224443;66;1235;-70
2021/11/15 02:59:30;;;;;;;;;;;;;;;;;;2221687;66;1937;-70
2021/11/15 03:02:04;;;;;;;;;;;;;;;;;;2222935;66;1191;-70
2021/11/15 03:04:37;;;;;;;;;;;;;;;;;;2222459;66;1233;-70
2021/11/15 03:07:13;;;;;;;;;;;;;;;;;;2222982;58;1160;-70
2021/11/15 03:09:46;;;;;;;;;;;;;;;;;;2221600;66;1243;-70
2021/11/15 03:12:19;;;;;;;;;;;;;;;;;;2218275;58;1200;-70
2021/11/15 03:14:52;;;;;;;;;;;;;;;;;;2222086;66;1253;-70
2021/11/15 03:17:25;;;;;;;;;;;;;;;;;;2223107;66;1189;-70
2021/11/15 03:19:58;;;;;;;;;;;;;;;;;;2221113;58;1928;-70
2021/11/15 03:22:34;;;;;;;;;;;;;;;;;;2222440;58;1446;-70
2021/11/15 03:25:08;;;;;;;;;;;;;;;;;;2221186;59;1265;-70
2021/11/15 03:27:41;;;;;;;;;;;;;;;;;;2223238;66;1211;-70
2021/11/15 03:30:14;;;;;;;;;;;;;;;;;;2221487;58;1253;-70
2021/11/15 03:32:49;;;;;;;;;;;;;;;;;;2223589;66;1247;-70
2021/11/15 03:35:22;;;;;;;;;;;;;;;;;;2221342;58;1352;-70
2021/11/15 03:37:58;;;;;;;;;;;;;;;;;;2223505;66;1231;-70
2021/11/15 03:40:31;;;;;;;;;;;;;;;;;;2220963;66;1933;-70
2021/11/15 03:43:05;;;;;;;;;;;;;;;;;;2222097;58;1215;-70
2021/11/15 03:45:39;;;;;;;;;;;;;;;;;;2220449;58;2310;-70
2021/11/15 03:48:13;;;;;;;;;;;;;;;;;;2221114;58;1210;-70
2021/11/15 03:50:46;;;;;;;;;;;;;;;;;;2221122;58;1434;-70
2021/11/15 03:53:22;;;;;;;;;;;;;;;;;;2223492;58;1397;-70
2021/11/15 03:55:56;;;;;;;;;;;;;;;;;;2222714;66;1208;-70
2021/11/15 03:58:29;;;;;;;;;;;;;;;;;;2222411;58;1927;-70
2021/11/15 04:01:02;;;;;;;;;;;;;;;;;;2220728;59;1265;-70
2021/11/15 04:03:37;;;;;;;;;;;;;;;;;;2221911;58;1504;-70
2021/11/15 04:06:12;;;;;;;;;;;;;;;;;;2221348;58;1188;-70
2021/11/15 04:08:48;;;;;;;;;;;;;;;;;;2224235;66;1207;-70
2021/11/15 04:11:22;;;;;;;;;;;;;;;;;;2220893;66;1276;-70
2021/11/15 04:13:56;;;;;;;;;;;;;;;;;;2222206;66;1116;-70
2021/11/15 04:16:30;;;;;;;;;;;;;;;;;;2221253;58;1191;-70
2021/11/15 04:19:04;;;;;;;;;;;;;;;;;;2223071;58;1927;-70
2021/11/15 04:21:38;;;;;;;;;;;;;;;;;;2221329;58;1210;-70
2021/11/15 04:24:14;;;;;;;;;;;;;;;;;;2223244;58;1419;-70
2021/11/15 04:26:47;;;;;;;;;;;;;;;;;;2220413;66;1270;-70
2021/11/15 04:29:20;;;;;;;;;;;;;;;;;;2223187;59;1112;-70
2021/11/15 04:31:53;;;;;;;;;;;;;;;;;;2220658;58;1375;-70
2021/11/15 04:34:26;;;;;;;;;;;;;;;;;;2223108;66;1245;-69
2021/11/15 04:37:00;;;;;;;;;;;;;;;;;;2220743;58;1191;-70
2021/11/15 04:39:36;;;;;;;;;;;;;;;;;;2222276;66;1924;-70
2021/11/15 04:42:09;;;;;;;;;;;;;;;;;;2221062;66;1290;-70
2021/11/15 04:44:42;;;;;;;;;;;;;;;;;;2221643;66;1133;-70
2021/11/15 04:47:15;;;;;;;;;;;;;;;;;;2220710;66;1209;-70
2021/11/15 04:49:48;;;;;;;;;;;;;;;;;;2220752;66;1195;-70
2021/11/15 04:52:21;;;;;;;;;;;;;;;;;;2220610;66;1308;-70
2021/11/15 04:54:58;;;;;;;;;;;;;;;;;;2221299;58;1190;-70
2021/11/15 04:57:31;;;;;;;;;;;;;;;;;;2220583;66;1228;-70
2021/11/15 05:00:05;;;;;;;;;;;;;;;;;;2221129;66;1976;-70
2021/11/15 05:02:38;;;;;;;;;;;;;;;;;;2221161;66;1243;-70
2021/11/15 05:05:11;;;;;;;;;;;;;;;;;;2221624;66;1116;-70
2021/11/15 05:07:45;;;;;;;;;;;;;;;;;;2220556;59;1195;-70
2021/11/15 05:10:21;;;;;;;;;;;;;;;;;;2221245;66;1244;-70
2021/11/15 05:12:54;;;;;;;;;;;;;;;;;;2221828;66;1302;-70
2021/11/15 05:15:28;;;;;;;;;;;;;;;;;;2221449;58;2242;-70
2021/11/15 05:18:01;;;;;;;;;;;;;;;;;;2220017;58;1167;-70
2021/11/15 05:20:34;;;;;;;;;;;;;;;;;;2221551;58;1986;-70
2021/11/15 05:23:07;;;;;;;;;;;;;;;;;;2221606;58;1506;-70
2021/11/15 05:25:43;;;;;;;;;;;;;;;;;;2221999;66;1126;-70
2021/11/15 05:28:16;;;;;;;;;;;;;;;;;;2221842;58;1470;-70
2021/11/15 05:30:49;;;;;;;;;;;;;;;;;;2222426;66;1290;-70
2021/11/15 05:33:23;;;;;;;;;;;;;;;;;;2219710;58;1251;-70
2021/11/15 05:35:56;;;;;;;;;;;;;;;;;;2222987;58;1233;-70
2021/11/15 05:38:29;;;;;;;;;;;;;;;;;;2221690;66;1239;-70
2021/11/15 05:41:05;;;;;;;;;;;;;;;;;;2222412;58;1936;-70
2021/11/15 05:43:38;;;;;;;;;;;;;;;;;;2221583;66;1167;-70
2021/11/15 05:46:11;;;;;;;;;;;;;;;;;;2222499;66;1093;-70
2021/11/15 05:48:44;;;;;;;;;;;;;;;;;;2221697;58;1220;-70
2021/11/15 05:51:18;;;;;;;;;;;;;;;;;;2222061;66;1179;-70
2021/11/15 05:53:51;;;;;;;;;;;;;;;;;;2221947;58;1121;-70
2021/11/15 05:56:27;;;;;;;;;;;;;;;;;;2221867;66;1196;-70
2021/11/15 05:59:00;;;;;;;;;;;;;;;;;;2221887;66;1174;-70
2021/11/15 06:01:34;;;;;;;;;;;;;;;;;;2221786;66;1927;-70
2021/11/15 06:04:07;;;;;;;;;;;;;;;;;;2221364;66;1231;-70
2021/11/15 06:06:40;;;;;;;;;;;;;;;;;;2221997;66;1361;-70
2021/11/15 06:09:14;;;;;;;;;;;;;;;;;;2222139;66;1227;-70
2021/11/15 06:11:50;;;;;;;;;;;;;;;;;;2221623;58;2186;-70
2021/11/15 06:14:23;;;;;;;;;;;;;;;;;;2221826;58;1269;-70
2021/11/15 06:16:56;;;;;;;;;;;;;;;;;;2221948;58;1209;-69
2021/11/15 06:19:29;;;;;;;;;;;;;;;;;;2221447;58;1919;-70
2021/11/15 06:22:03;;;;;;;;;;;;;;;;;;2222932;58;1342;-70
2021/11/15 06:24:36;;;;;;;;;;;;;;;;;;2222425;58;2251;-70
2021/11/15 06:27:12;;;;;;;;;;;;;;;;;;2221541;66;1122;-70
2021/11/15 06:29:46;;;;;;;;;;;;;;;;;;2221004;58;1428;-70
2021/11/15 06:32:19;;;;;;;;;;;;;;;;;;2221196;66;1254;-70
2021/11/15 06:34:52;;;;;;;;;;;;;;;;;;2222384;59;1252;-69
2021/11/15 06:37:25;;;;;;;;;;;;;;;;;;2221290;58;1589;-70
2021/11/15 06:39:59;;;;;;;;;;;;;;;;;;2222599;66;1940;-69
2021/11/15 06:42:35;;;;;;;;;;;;;;;;;;2221838;58;1472;-70
2021/11/15 06:45:09;;;;;;;;;;;;;;;;;;2222457;58;1747;-70
2021/11/15 06:47:43;;;;;;;;;;;;;;;;;;2222479;58;1170;-70
2021/11/15 06:50:17;;;;;;;;;;;;;;;;;;2221848;66;1202;-70
2021/11/15 06:52:50;;;;;;;;;;;;;;;;;;2222111;66;1215;-70
2021/11/15 06:55:25;;;;;;;;;;;;;;;;;;2223831;66;1128;-70
2021/11/15 06:58:01;;;;;;;;;;;;;;;;;;2222113;58;1094;-70
2021/11/15 07:00:34;;;;;;;;;;;;;;;;;;2222066;66;1921;-70
2021/11/15 07:03:07;;;;;;;;;;;;;;;;;;2221875;66;1089;-70
2021/11/15 07:05:40;;;;;;;;;;;;;;;;;;2223078;58;1419;-70
2021/11/15 07:08:13;;;;;;;;;;;;;;;;;;2221528;66;1211;-70
2021/11/15 07:10:47;;;;;;;;;;;;;;;;;;2222222;59;1229;-70
2021/11/15 07:13:23;;;;;;;;;;;;;;;;;;2222243;58;1407;-70
2021/11/15 07:15:56;;;;;;;;;;;;;;;;;;2223096;66;1218;-70
2021/11/15 07:18:32;;;;;;;;;;;;;;;;;;2221274;66;1274;-70
2021/11/15 07:21:06;;;;;;;;;;;;;;;;;;2222040;58;1926;-70
2021/11/15 07:23:39;;;;;;;;;;;;;;;;;;2221829;58;1506;-70
2021/11/15 07:26:13;;;;;;;;;;;;;;;;;;2221379;66;1291;-70
2021/11/15 07:28:49;;;;;;;;;;;;;;;;;;2220924;66;1278;-70
2021/11/15 07:31:22;;;;;;;;;;;;;;;;;;2220994;58;2098;-70
2021/11/15 07:33:56;;;;;;;;;;;;;;;;;;2221594;58;2395;-70
2021/11/15 07:36:31;;;;;;;;;;;;;;;;;;2221295;58;1511;-70
2021/11/15 07:39:05;;;;;;;;;;;;;;;;;;2222510;58;1513;-70
2021/11/15 07:41:38;;;;;;;;;;;;;;;;;;2221204;58;1935;-69
2021/11/15 07:44:14;;;;;;;;;;;;;;;;;;2221597;61;1227;-69
2021/11/15 07:46:48;;;;;;;;;;;;;;;;;;2224467;66;1228;-70
2021/11/15 07:49:21;;;;;;;;;;;;;;;;;;2222533;58;2592;-70
2021/11/15 07:51:54;;;;;;;;;;;;;;;;;;2221566;58;1274;-70
2021/11/15 07:54:28;;;;;;;;;;;;;;;;;;2221097;58;1624;-69
2021/11/15 07:57:01;;;;;;;;;;;;;;;;;;2222187;58;1707;-70
2021/11/15 07:59:37;;;;;;;;;;;;;;;;;;2218934;58;1281;-70
2021/11/15 08:02:11;;;;;;;;;;;;;;;;;;2221363;58;1928;-70
2021/11/15 08:04:46;;;;;;;;;;;;;;;;;;2222134;59;1309;-70
2021/11/15 08:07:20;;;;;;;;;;;;;;;;;;2221764;58;1808;-70
2021/11/15 08:09:54;;;;;;;;;;;;;;;;;;2222059;58;1829;-70
2021/11/15 08:12:35;;;;;;;;;;;;;;;;;;2222307;66;1289;-69
2021/11/15 08:15:13;;;;;;;;;;;;;;;;;;2220812;58;1629;-70
2021/11/15 08:17:47;;;;;;;;;;;;;;;;;;2221993;58;1693;-69
2021/11/15 08:20:21;;;;;;;;;;;;;;;;;;2222193;58;1987;-70
2021/11/15 08:22:56;;;;;;;;;;;;;;;;;;2222053;58;2346;-70
2021/11/15 08:26:02;;;;;;;;;;;;;;;;;;2220323;58;1786;-69
2021/11/15 08:28:36;;;;;;;;;;;;;;;;;;2222829;66;1272;-70
2021/11/15 08:31:13;;;;;;;;;;;;;;;;;;2221276;58;1306;-70
2021/11/15 08:33:46;;;;;;;;;;;;;;;;;;2221350;66;1236;-70
2021/11/15 08:36:20;;;;;;;;;;;;;;;;;;2218329;58;1449;-70
2021/11/15 08:38:55;;;;;;;;;;;;;;;;;;2220696;58;1627;-70
2021/11/15 08:41:31;;;;;;;;;;;;;;;;;;2220818;58;1945;-70
2021/11/15 08:44:06;;;;;;;;;;;;;;;;;;2222168;58;1117;-70
2021/11/15 08:46:44;;;;;;;;;;;;;;;;;;2222902;66;1230;-70
2021/11/15 08:49:18;;;;;;;;;;;;;;;;;;2221331;66;1279;-70
2021/11/15 08:51:52;;;;;;;;;;;;;;;;;;2221472;66;1194;-70
2021/11/15 08:54:26;;;;;;;;;;;;;;;;;;2220350;58;1318;-70
2021/11/15 08:57:00;;;;;;;;;;;;;;;;;;2222351;58;1306;-70
2021/11/15 08:59:33;;;;;;;;;;;;;;;;;;2222458;58;1426;-69
2021/11/15 09:02:09;;;;;;;;;;;;;;;;;;2222272;58;1925;-70
2021/11/15 09:04:43;;;;;;;;;;;;;;;;;;2222318;58;1273;-70
2021/11/15 09:07:16;;;;;;;;;;;;;;;;;;2221074;58;2333;-70
2021/11/15 09:09:49;;;;;;;;;;;;;;;;;;2221139;58;1238;-70
2021/11/15 09:12:22;;;;;;;;;;;;;;;;;;2222202;58;1588;-70
2021/11/15 09:14:57;;;;;;;;;;;;;;;;;;2220593;58;2487;-70
2021/11/15 09:17:33;;;;;;;;;;;;;;;;;;2222051;58;1247;-70
2021/11/15 09:20:07;;;;;;;;;;;;;;;;;;2222047;58;1319;-70
2021/11/15 09:22:41;;;;;;;;;;;;;;;;;;2221564;58;1978;-70
2021/11/15 09:25:14;;;;;;;;;;;;;;;;;;2222129;58;1390;-70
2021/11/15 09:27:48;;;;;;;;;;;;;;;;;;2222783;58;1242;-70
2021/11/15 09:30:21;;;;;;;;;;;;;;;;;;2222196;58;1291;-70
2021/11/15 09:32:57;;;;;;;;;;;;;;;;;;2223833;58;1267;-70
2021/11/15 09:35:30;;;;;;;;;;;;;;;;;;2222427;58;1525;-70
2021/11/15 09:38:03;;;;;;;;;;;;;;;;;;2221398;58;1753;-70
2021/11/15 09:40:36;;;;;;;;;;;;;;;;;;2221979;58;2068;-70
2021/11/15 09:43:10;;;;;;;;;;;;;;;;;;2222506;58;1261;-70
2021/11/15 09:45:43;;;;;;;;;;;;;;;;;;2221845;58;1841;-70
2021/11/15 09:48:19;;;;;;;;;;;;;;;;;;2219457;58;1434;-70
2021/11/15 09:50:52;;;;;;;;;;;;;;;;;;2220443;58;1597;-70
2021/11/15 09:53:26;;;;;;;;;;;;;;;;;;2221294;58;1910;-70
2021/11/15 09:55:59;;;;;;;;;;;;;;;;;;2221768;58;1750;-70
2021/11/15 09:58:33;;;;;;;;;;;;;;;;;;2221423;58;2567;-70
2021/11/15 10:01:06;;;;;;;;;;;;;;;;;;2221208;58;2339;-70
2021/11/15 10:03:42;;;;;;;;;;;;;;;;;;2220968;58;1433;-70
2021/11/15 10:06:15;;;;;;;;;;;;;;;;;;2221972;58;1395;-70
2021/11/15 10:08:49;;;;;;;;;;;;;;;;;;2220286;58;1976;-70
2021/11/15 10:11:23;;;;;;;;;;;;;;;;;;2220542;58;1938;-70
2021/11/15 10:13:57;;;;;;;;;;;;;;;;;;2217586;58;1955;-70
2021/11/15 10:16:32;;;;;;;;;;;;;;;;;;2222013;58;1452;-70
2021/11/15 10:19:09;;;;;;;;;;;;;;;;;;2216706;59;2244;-70
2021/11/15 10:21:43;;;;;;;;;;;;;;;;;;2220365;58;2453;-70
2021/11/15 10:24:17;;;;;;;;;;;;;;;;;;2221165;58;2138;-70
2021/11/15 10:26:53;;;;;;;;;;;;;;;;;;2221582;58;1514;-71
2021/11/15 10:29:32;;;;;;;;;;;;;;;;;;2222158;58;1181;-70
2021/11/15 10:32:06;;;;;;;;;;;;;;;;;;2222157;58;1140;-70
2021/11/15 10:34:43;;;;;;;;;;;;;;;;;;2222080;58;1452;-71
2021/11/15 10:37:19;;;;;;;;;;;;;;;;;;2221711;58;2254;-71
2021/11/15 10:39:53;;;;;;;;;;;;;;;;;;2222146;58;1431;-70
2021/11/15 10:42:27;;;;;;;;;;;;;;;;;;2219238;58;1940;-70
2021/11/15 10:45:02;;;;;;;;;;;;;;;;;;2220731;58;1748;-70
2021/11/15 10:47:37;;;;;;;;;;;;;;;;;;2221771;58;1437;-70
2021/11/15 10:50:20;;;;;;;;;;;;;;;;;;2221343;58;1512;-70
2021/11/15 10:53:01;;;;;;;;;;;;;;;;;;2222845;58;1555;-70
2021/11/15 10:55:37;;;;;;;;;;;;;;;;;;2222072;58;1238;-71
2021/11/15 10:58:15;;;;;;;;;;;;;;;;;;2221325;58;1382;-70
2021/11/15 11:00:56;;;;;;;;;;;;;;;;;;2220612;58;3075;-70
2021/11/15 11:03:30;;;;;;;;;;;;;;;;;;2220614;58;1347;-70
2021/11/15 11:06:08;;;;;;;;;;;;;;;;;;2221463;58;1811;-70
2021/11/15 11:08:43;;;;;;;;;;;;;;;;;;2218896;58;1474;-70
2021/11/15 11:11:17;;;;;;;;;;;;;;;;;;2222014;58;1286;-70
2021/11/15 11:13:53;;;;;;;;;;;;;;;;;;2221276;58;2111;-70
2021/11/15 11:16:38;;;;;;;;;;;;;;;;;;2221669;58;1263;-70
2021/11/15 11:19:27;;;;;;;;;;;;;;;;;;2221982;58;2040;-70
2021/11/15 11:22:26;;;;;;;;;;;;;;;;;;2222171;58;1925;-70
2021/11/15 11:25:08;;;;;;;;;;;;;;;;;;2222319;58;2279;-70
2021/11/15 11:27:41;;;;;;;;;;;;;;;;;;2221276;58;1653;-70
2021/11/15 11:30:15;;;;;;;;;;;;;;;;;;2221827;58;1171;-70
2021/11/15 11:32:51;;;;;;;;;;;;;;;;;;2222646;58;1427;-70
2021/11/15 11:35:25;;;;;;;;;;;;;;;;;;2222491;58;1292;-70
2021/11/15 11:38:01;;;;;;;;;;;;;;;;;;2222217;58;1421;-70
2021/11/15 11:40:34;;;;;;;;;;;;;;;;;;2223023;58;1411;-70
2021/11/15 11:43:08;;;;;;;;;;;;;;;;;;2221610;58;2216;-70
2021/11/15 11:45:41;;;;;;;;;;;;;;;;;;2221542;58;1275;-70
2021/11/15 11:48:15;;;;;;;;;;;;;;;;;;2221229;58;1393;-70
2021/11/15 11:50:49;;;;;;;;;;;;;;;;;;2220663;58;1559;-70
2021/11/15 11:53:26;;;;;;;;;;;;;;;;;;2221688;58;1542;-70
2021/11/15 11:56:00;;;;;;;;;;;;;;;;;;2221728;58;1500;-70
2021/11/15 11:58:34;;;;;;;;;;;;;;;;;;2218514;59;2115;-70
2021/11/15 12:01:08;;;;;;;;;;;;;;;;;;2219726;58;2520;-70
2021/11/15 12:03:41;;;;;;;;;;;;;;;;;;2221121;58;2340;-70
2021/11/15 12:06:30;;;;;;;;;;;;;;;;;;2221533;58;1579;-70
2021/11/15 12:09:06;;;;;;;;;;;;;;;;;;2222150;58;1318;-70
2021/11/15 12:11:41;;;;;;;;;;;;;;;;;;2223013;58;1277;-70
2021/11/15 12:14:16;;;;;;;;;;;;;;;;;;2222388;58;1182;-71
2021/11/15 12:17:02;;;;;;;;;;;;;;;;;;2218943;58;1503;-70
2021/11/15 12:19:54;;;;;;;;;;;;;;;;;;2222118;58;1595;-70
2021/11/15 12:22:28;;;;;;;;;;;;;;;;;;2222337;58;1939;-70
2021/11/15 12:25:13;;;;;;;;;;;;;;;;;;2222427;58;1265;-71
2021/11/15 12:27:51;;;;;;;;;;;;;;;;;;2222848;58;1344;-70
2021/11/15 12:30:26;;;;;;;;;;;;;;;;;;2222225;58;1302;-70
2021/11/15 12:33:19;;;;;;;;;;;;;;;;;;2221231;58;1228;-70
2021/11/15 12:35:53;;;;;;;;;;;;;;;;;;2222262;58;1520;-70
2021/11/15 12:38:38;;;;;;;;;;;;;;;;;;2221753;58;1230;-70
2021/11/15 12:41:30;;;;;;;;;;;;;;;;;;2221809;58;1347;-70
2021/11/15 12:44:16;;;;;;;;;;;;;;;;;;2220729;58;1501;-70
2021/11/15 12:46:53;;;;;;;;;;;;;;;;;;2221389;58;1787;-70
2021/11/15 12:49:28;;;;;;;;;;;;;;;;;;2218720;59;1532;-70
2021/11/15 12:52:31;;;;;;;;;;;;;;;;;;2222449;58;1234;-70
2021/11/15 12:55:10;;;;;;;;;;;;;;;;;;2206614;59;1442;-70
2021/11/15 12:57:45;;;;;;;;;;;;;;;;;;2218972;58;1438;-70
2021/11/15 13:00:24;;;;;;;;;;;;;;;;;;2219964;58;2206;-70
2021/11/15 13:02:59;;;;;;;;;;;;;;;;;;2219596;58;2606;-70
2021/11/15 13:05:37;;;;;;;;;;;;;;;;;;2220173;58;1269;-70
2021/11/15 13:08:11;;;;;;;;;;;;;;;;;;2222030;58;1420;-70
2021/11/15 13:10:46;;;;;;;;;;;;;;;;;;2222169;58;1255;-70
2021/11/15 13:13:20;;;;;;;;;;;;;;;;;;2221540;58;2178;-70
2021/11/15 13:15:55;;;;;;;;;;;;;;;;;;2220708;58;2212;-70
2021/11/15 13:18:29;;;;;;;;;;;;;;;;;;2220895;58;2475;-70
2021/11/15 13:21:02;;;;;;;;;;;;;;;;;;2221748;58;1192;-70
2021/11/15 13:23:35;;;;;;;;;;;;;;;;;;2220583;58;1974;-70
2021/11/15 13:26:09;;;;;;;;;;;;;;;;;;2220796;58;1217;-70
2021/11/15 13:28:42;;;;;;;;;;;;;;;;;;2220939;58;1530;-70
2021/11/15 13:31:18;;;;;;;;;;;;;;;;;;2220444;58;1418;-70
2021/11/15 13:33:51;;;;;;;;;;;;;;;;;;2222315;58;1548;-70
2021/11/15 13:36:24;;;;;;;;;;;;;;;;;;2221876;58;1261;-70
2021/11/15 13:38:58;;;;;;;;;;;;;;;;;;2222238;58;1550;-70
2021/11/15 13:41:32;;;;;;;;;;;;;;;;;;2222508;58;1310;-70
2021/11/15 13:44:05;;;;;;;;;;;;;;;;;;2217498;58;1928;-70
2021/11/15 13:46:41;;;;;;;;;;;;;;;;;;2217998;58;2126;-70
2021/11/15 13:49:14;;;;;;;;;;;;;;;;;;2221247;58;2401;-70
2021/11/15 13:51:47;;;;;;;;;;;;;;;;;;2222534;58;1308;-70
2021/11/15 13:54:20;;;;;;;;;;;;;;;;;;2222376;58;1767;-70
2021/11/15 13:56:54;;;;;;;;;;;;;;;;;;2222226;58;2319;-71
2021/11/15 13:59:27;;;;;;;;;;;;;;;;;;2222675;58;1206;-71
2021/11/15 14:02:03;;;;;;;;;;;;;;;;;;2221714;58;2613;-70
2021/11/15 14:04:36;;;;;;;;;;;;;;;;;;2221205;58;2719;-70
2021/11/15 14:07:10;;;;;;;;;;;;;;;;;;2221938;58;1277;-70
2021/11/15 14:09:44;;;;;;;;;;;;;;;;;;2222763;58;1246;-70
2021/11/15 14:12:17;;;;;;;;;;;;;;;;;;2221688;58;1254;-70
2021/11/15 14:14:50;;;;;;;;;;;;;;;;;;2222646;58;1760;-70
2021/11/15 14:17:26;;;;;;;;;;;;;;;;;;2222864;58;1556;-70
2021/11/15 14:22:38;;;;;;;;;;;;;;;;;;2219781;58;1957;-70
2021/11/15 14:25:11;;;;;;;;;;;;;;;;;;2221843;58;1328;-70
2021/11/15 14:27:45;;;;;;;;;;;;;;;;;;2221584;58;2304;-70
2021/11/15 14:30:18;;;;;;;;;;;;;;;;;;2220922;58;1696;-70
2021/11/15 14:32:54;;;;;;;;;;;;;;;;;;2218589;58;1420;-70
2021/11/15 14:35:27;;;;;;;;;;;;;;;;;;2218597;59;1250;-71
2021/11/15 14:38:00;;;;;;;;;;;;;;;;;;2218932;59;1521;-71
2021/11/15 14:40:33;;;;;;;;;;;;;;;;;;2218995;58;1479;-70
2021/11/15 14:43:06;;;;;;;;;;;;;;;;;;2218544;58;2346;-70
2021/11/15 14:45:40;;;;;;;;;;;;;;;;;;2216961;58;1203;-70
2021/11/15 14:48:16;;;;;;;;;;;;;;;;;;2218705;58;2353;-71
2021/11/15 14:50:49;;;;;;;;;;;;;;;;;;2218096;58;2275;-70
2021/11/15 14:53:23;;;;;;;;;;;;;;;;;;2217507;58;2259;-70
2021/11/15 14:55:57;;;;;;;;;;;;;;;;;;2217582;59;1514;-71
2021/11/15 14:58:30;;;;;;;;;;;;;;;;;;2214948;59;1998;-71
2021/11/15 15:01:03;;;;;;;;;;;;;;;;;;2217517;58;1230;-71
2021/11/15 15:03:39;;;;;;;;;;;;;;;;;;2217434;58;2764;-70
2021/11/15 15:06:12;;;;;;;;;;;;;;;;;;2217626;58;2367;-71
2021/11/15 15:08:45;;;;;;;;;;;;;;;;;;2219020;58;2217;-71
2021/11/15 15:11:18;;;;;;;;;;;;;;;;;;2216316;58;1361;-71
2021/11/15 15:13:53;;;;;;;;;;;;;;;;;;2217645;58;2108;-71
2021/11/15 15:16:27;;;;;;;;;;;;;;;;;;2217427;58;2254;-71
2021/11/15 15:19:06;;;;;;;;;;;;;;;;;;2218178;58;2454;-71
2021/11/15 15:21:39;;;;;;;;;;;;;;;;;;2214310;58;2383;-71
2021/11/15 15:24:13;;;;;;;;;;;;;;;;;;2217790;58;1943;-70
2021/11/15 15:26:46;;;;;;;;;;;;;;;;;;2217842;58;2213;-71
2021/11/15 15:29:19;;;;;;;;;;;;;;;;;;2217745;58;1632;-70
2021/11/15 15:31:53;;;;;;;;;;;;;;;;;;2217211;58;2319;-70
2021/11/15 15:34:29;;;;;;;;;;;;;;;;;;2218334;59;1245;-71
2021/11/15 15:37:02;;;;;;;;;;;;;;;;;;2217616;58;2468;-70
2021/11/15 15:39:36;;;;;;;;;;;;;;;;;;2218856;58;2226;-71
2021/11/15 15:42:10;;;;;;;;;;;;;;;;;;2217324;58;1527;-71
2021/11/15 15:44:43;;;;;;;;;;;;;;;;;;2218007;58;1921;-70
2021/11/15 15:47:16;;;;;;;;;;;;;;;;;;2217673;59;1324;-71
2021/11/15 15:49:55;;;;;;;;;;;;;;;;;;2216912;58;1418;-70
2021/11/15 15:52:29;;;;;;;;;;;;;;;;;;2211992;59;1610;-70
2021/11/15 15:55:02;;;;;;;;;;;;;;;;;;2216626;59;1505;-70
2021/11/15 15:57:35;;;;;;;;;;;;;;;;;;2213247;59;1301;-70
2021/11/15 16:00:12;;;;;;;;;;;;;;;;;;2216517;59;1319;-71
2021/11/15 16:02:47;;;;;;;;;;;;;;;;;;2219442;58;1927;-71
2021/11/15 16:05:50;;;;;;;;;;;;;;;;;;2216508;58;2498;-70
2021/11/15 16:14:19;;;;;;;;;;;;;;;;;;2216917;58;1526;-71
2021/11/15 16:17:06;;;;;;;;;;;;;;;;;;2216754;58;2281;-71
2021/11/15 16:19:40;;;;;;;;;;;;;;;;;;2217979;58;2214;-71
2021/11/15 16:22:16;;;;;;;;;;;;;;;;;;2217531;58;2362;-70
2021/11/15 16:24:49;;;;;;;;;;;;;;;;;;2218642;58;1981;-71
2021/11/15 16:27:22;;;;;;;;;;;;;;;;;;2216624;58;2232;-70
2021/11/15 16:29:55;;;;;;;;;;;;;;;;;;2217515;59;1158;-71
2021/11/15 16:32:28;;;;;;;;;;;;;;;;;;2216923;58;1387;-71
2021/11/15 16:35:02;;;;;;;;;;;;;;;;;;2217907;58;1246;-70
2021/11/15 16:37:38;;;;;;;;;;;;;;;;;;2216631;59;1166;-70
2021/11/15 16:40:12;;;;;;;;;;;;;;;;;;2216376;58;2209;-70
2021/11/15 16:42:45;;;;;;;;;;;;;;;;;;2216356;58;2313;-70
2021/11/15 16:45:20;;;;;;;;;;;;;;;;;;2217512;59;1562;-70
2021/11/15 16:47:55;;;;;;;;;;;;;;;;;;2218419;58;1321;-71
2021/11/15 16:50:29;;;;;;;;;;;;;;;;;;2219175;59;1441;-70
2021/11/15 16:53:05;;;;;;;;;;;;;;;;;;2216678;58;2682;-70
2021/11/15 16:55:38;;;;;;;;;;;;;;;;;;2217808;58;2244;-70
2021/11/15 16:58:12;;;;;;;;;;;;;;;;;;2217215;58;1336;-70
2021/11/15 17:00:47;;;;;;;;;;;;;;;;;;2218651;58;1210;-70
2021/11/15 17:03:21;;;;;;;;;;;;;;;;;;2217511;59;1921;-70
2021/11/15 17:05:55;;;;;;;;;;;;;;;;;;2218865;59;1279;-71
2021/11/15 17:08:31;;;;;;;;;;;;;;;;;;2217398;58;1434;-71
2021/11/15 17:11:08;;;;;;;;;;;;;;;;;;2218548;59;1265;-70
2021/11/15 17:13:43;;;;;;;;;;;;;;;;;;2218586;59;1254;-70
2021/11/15 17:16:19;;;;;;;;;;;;;;;;;;2218663;59;1273;-71
2021/11/15 17:18:55;;;;;;;;;;;;;;;;;;2217702;59;1454;-71
2021/11/15 17:21:29;;;;;;;;;;;;;;;;;;2217820;58;1266;-70
2021/11/15 17:24:05;;;;;;;;;;;;;;;;;;2218468;58;2291;-70
2021/11/15 17:26:38;;;;;;;;;;;;;;;;;;2218172;58;1186;-70
2021/11/15 17:29:12;;;;;;;;;;;;;;;;;;2218091;58;1763;-70
2021/11/15 17:31:46;;;;;;;;;;;;;;;;;;2218854;58;1418;-70
2021/11/15 17:34:19;;;;;;;;;;;;;;;;;;2217496;58;1195;-70
2021/11/15 17:36:52;;;;;;;;;;;;;;;;;;2218723;58;1410;-71
2021/11/15 17:39:29;;;;;;;;;;;;;;;;;;2218173;59;1307;-70
2021/11/15 17:42:02;;;;;;;;;;;;;;;;;;2219085;58;1425;-70
2021/11/15 17:44:35;;;;;;;;;;;;;;;;;;2217167;58;1919;-70
2021/11/15 17:47:08;;;;;;;;;;;;;;;;;;2218666;59;1588;-70
2021/11/15 17:49:43;;;;;;;;;;;;;;;;;;2217225;58;1634;-70
2021/11/15 17:52:18;;;;;;;;;;;;;;;;;;2218202;58;1279;-70
2021/11/15 17:55:09;;;;;;;;;;;;;;;;;;2217366;58;1320;-70
2021/11/15 17:57:47;;;;;;;;;;;;;;;;;;2218723;58;1301;-70
2021/11/15 18:00:24;;;;;;;;;;;;;;;;;;2217766;59;1284;-70
2021/11/15 18:02:57;;;;;;;;;;;;;;;;;;2217554;58;1263;-71
2021/11/15 18:05:30;;;;;;;;;;;;;;;;;;2217572;59;1923;-70